Time;durP1;ratioP1;P1;durP2;ratioP2;P2;SDS_P1;SDS_P2;PMS_P1;PMS_P2;Temp;Humidity;BMP_temperature;BMP_pressure;BME280_temperature;BME280_humidity;BME280_pressure;Samples;Min_cycle;Max_cycle;Signal;HPM_P1;HPM_P2
2022/07/20 00:01:38;;;;;;;11.27;5.10;;;;;;;;;;5076390;28;20482;-73
2022/07/20 00:04:07;;;;;;;8.67;3.40;;;;;;;;;;5076022;28;20451;-73
2022/07/20 00:06:34;;;;;;;6.33;3.87;;;;;;;;;;5076307;28;20463;-73
2022/07/20 00:11:46;;;;;;;6.30;3.77;;;;;;;;;;5075973;28;20442;-73
2022/07/20 00:14:13;;;;;;;6.40;4.00;;;;;;;;;;5076117;28;20998;-73
2022/07/20 00:16:40;;;;;;;11.07;5.10;;;;;;;;;;5075835;28;20447;-72
2022/07/20 00:19:09;;;;;;;6.90;4.00;;;;;;;;;;5076309;28;20459;-73
2022/07/20 00:21:36;;;;;;;5.33;3.70;;;;;;;;;;5075745;28;20479;-73
2022/07/20 00:24:03;;;;;;;6.00;3.33;;;;;;;;;;5075739;28;20455;-73
2022/07/20 00:26:30;;;;;;;4.87;3.60;;;;;;;;;;5075990;28;20952;-73
2022/07/20 00:28:57;;;;;;;4.70;4.10;;;;;;;;;;5075884;28;20452;-72
2022/07/20 00:31:24;;;;;;;10.07;4.27;;;;;;;;;;5075833;28;20455;-72
2022/07/20 00:33:52;;;;;;;6.67;3.60;;;;;;;;;;5075927;28;20448;-72
2022/07/20 00:36:21;;;;;;;7.03;3.70;;;;;;;;;;5075738;28;20495;-72
2022/07/20 00:38:48;;;;;;;7.13;3.97;;;;;;;;;;5075765;28;20463;-72
2022/07/20 00:41:15;;;;;;;6.43;4.00;;;;;;;;;;5075631;28;20459;-73
2022/07/20 00:44:02;;;;;;;6.37;4.23;;;;;;;;;;5075337;28;20491;-73
2022/07/20 00:46:30;;;;;;;7.67;3.43;;;;;;;;;;5075584;28;20455;-73
2022/07/20 00:48:57;;;;;;;4.23;3.53;;;;;;;;;;5075515;28;20454;-72
2022/07/20 00:51:26;;;;;;;7.10;3.73;;;;;;;;;;5075432;28;20448;-72
2022/07/20 00:53:53;;;;;;;5.63;3.70;;;;;;;;;;5075036;28;20475;-72
2022/07/20 00:56:21;;;;;;;4.23;3.60;;;;;;;;;;5075327;28;20492;-72
2022/07/20 00:58:48;;;;;;;8.50;3.87;;;;;;;;;;5075384;28;20491;-72
2022/07/20 01:01:16;;;;;;;11.73;3.53;;;;;;;;;;5074934;28;20460;-73
2022/07/20 01:03:43;;;;;;;6.93;3.90;;;;;;;;;;5075287;28;20970;-73
2022/07/20 01:06:10;;;;;;;3.63;3.20;;;;;;;;;;5075211;28;20452;-73
2022/07/20 01:08:39;;;;;;;10.20;4.53;;;;;;;;;;5074880;28;20455;-73
2022/07/20 01:11:06;;;;;;;5.80;4.00;;;;;;;;;;5075207;28;20463;-72
2022/07/20 01:13:34;;;;;;;4.73;3.30;;;;;;;;;;5074975;28;20498;-72
2022/07/20 01:16:01;;;;;;;3.83;3.17;;;;;;;;;;5074922;28;20487;-72
2022/07/20 01:18:28;;;;;;;4.27;3.13;;;;;;;;;;5074705;28;20470;-72
2022/07/20 01:21:00;;;;;;;3.30;2.90;;;;;;;;;;5075030;28;20447;-72
2022/07/20 01:23:27;;;;;;;4.17;3.20;;;;;;;;;;5074856;28;20988;-72
2022/07/20 01:25:54;;;;;;;5.87;3.53;;;;;;;;;;5074920;28;20455;-72
2022/07/20 01:28:21;;;;;;;4.00;3.60;;;;;;;;;;5074506;28;20463;-72
2022/07/20 01:30:48;;;;;;;7.43;3.30;;;;;;;;;;5074739;28;20953;-72
2022/07/20 01:33:15;;;;;;;4.20;3.27;;;;;;;;;;5074689;28;20984;-72
2022/07/20 01:35:42;;;;;;;4.53;3.23;;;;;;;;;;5074505;28;20487;-72
2022/07/20 01:38:11;;;;;;;4.10;2.97;;;;;;;;;;5074670;28;20452;-72
2022/07/20 01:40:38;;;;;;;4.00;2.93;;;;;;;;;;5074620;28;20436;-72
2022/07/20 01:43:05;;;;;;;3.87;3.10;;;;;;;;;;5074254;28;20886;-72
2022/07/20 01:45:32;;;;;;;5.47;3.40;;;;;;;;;;5074475;28;20447;-72
2022/07/20 01:47:59;;;;;;;5.70;3.10;;;;;;;;;;5074111;28;20456;-72
2022/07/20 01:50:26;;;;;;;4.00;3.60;;;;;;;;;;5074266;28;20470;-72
2022/07/20 01:52:53;;;;;;;4.93;3.70;;;;;;;;;;5074193;28;20483;-72
2022/07/20 01:55:22;;;;;;;5.50;3.27;;;;;;;;;;5074255;28;20475;-72
2022/07/20 01:57:49;;;;;;;4.30;2.73;;;;;;;;;;5074188;28;20456;-72
2022/07/20 02:00:17;;;;;;;5.70;3.40;;;;;;;;;;5074143;28;20452;-72
2022/07/20 02:02:44;;;;;;;6.73;2.80;;;;;;;;;;5073995;28;20563;-72
2022/07/20 02:05:11;;;;;;;4.83;3.80;;;;;;;;;;5073306;28;20842;-72
2022/07/20 02:07:39;;;;;;;3.43;2.90;;;;;;;;;;5074003;28;20818;-72
2022/07/20 02:10:07;;;;;;;4.47;3.60;;;;;;;;;;5074011;28;20456;-72
2022/07/20 02:12:36;;;;;;;7.80;3.40;;;;;;;;;;5073936;28;20476;-72
2022/07/20 02:15:03;;;;;;;5.30;3.33;;;;;;;;;;5073837;28;20483;-72
2022/07/20 02:17:30;;;;;;;8.50;4.10;;;;;;;;;;5073833;28;20458;-72
2022/07/20 02:19:57;;;;;;;7.70;4.43;;;;;;;;;;5073474;28;20534;-72
2022/07/20 02:22:24;;;;;;;5.30;3.43;;;;;;;;;;5073635;28;21007;-72
2022/07/20 02:24:52;;;;;;;6.77;2.90;;;;;;;;;;5073751;28;20448;-72
2022/07/20 02:27:19;;;;;;;4.03;3.13;;;;;;;;;;5073528;28;20463;-73
2022/07/20 02:29:47;;;;;;;4.90;2.73;;;;;;;;;;5073623;28;20933;-72
2022/07/20 02:32:14;;;;;;;3.43;3.13;;;;;;;;;;5073521;28;20480;-72
2022/07/20 02:34:41;;;;;;;5.67;3.43;;;;;;;;;;5073646;28;20463;-72
2022/07/20 02:37:08;;;;;;;13.63;3.77;;;;;;;;;;5073524;28;20455;-72
2022/07/20 02:39:35;;;;;;;6.47;3.33;;;;;;;;;;5073515;28;20452;-72
2022/07/20 02:42:03;;;;;;;7.83;3.70;;;;;;;;;;5073382;28;20464;-72
2022/07/20 02:44:30;;;;;;;3.60;3.13;;;;;;;;;;5073260;28;20440;-72
2022/07/20 02:46:58;;;;;;;4.40;3.17;;;;;;;;;;5073200;28;20455;-72
2022/07/20 02:49:25;;;;;;;6.27;3.80;;;;;;;;;;5073543;28;20831;-72
2022/07/20 02:51:52;;;;;;;12.53;4.07;;;;;;;;;;5073359;28;20468;-72
2022/07/20 02:54:19;;;;;;;4.80;4.30;;;;;;;;;;5073480;28;20436;-72
2022/07/20 02:56:46;;;;;;;5.63;3.60;;;;;;;;;;5073340;28;20494;-72
2022/07/20 02:59:13;;;;;;;4.40;3.20;;;;;;;;;;5073402;28;20475;-72
2022/07/20 03:01:40;;;;;;;3.87;3.57;;;;;;;;;;5073327;28;20471;-72
2022/07/20 03:04:09;;;;;;;5.03;3.67;;;;;;;;;;5073314;28;20474;-72
2022/07/20 03:06:36;;;;;;;3.77;3.47;;;;;;;;;;5073012;28;20496;-72
2022/07/20 03:09:03;;;;;;;8.47;3.93;;;;;;;;;;5073309;28;20454;-72
2022/07/20 03:11:30;;;;;;;6.33;3.60;;;;;;;;;;5073263;28;20998;-72
2022/07/20 03:13:57;;;;;;;5.03;3.70;;;;;;;;;;5073296;28;20798;-72
2022/07/20 03:16:24;;;;;;;3.27;2.97;;;;;;;;;;5073923;28;21018;-72
2022/07/20 03:18:51;;;;;;;6.80;4.10;;;;;;;;;;5077315;28;20932;-72
2022/07/20 03:21:20;;;;;;;8.43;3.30;;;;;;;;;;5077146;28;20869;-72
2022/07/20 03:23:47;;;;;;;6.60;3.43;;;;;;;;;;5077193;28;20455;-72
2022/07/20 03:26:15;;;;;;;9.50;4.03;;;;;;;;;;5077145;28;20577;-72
2022/07/20 03:28:42;;;;;;;7.03;3.80;;;;;;;;;;5077105;28;20940;-72
2022/07/20 03:31:09;;;;;;;5.23;3.63;;;;;;;;;;5077071;28;20955;-72
2022/07/20 03:33:36;;;;;;;5.30;3.57;;;;;;;;;;5077036;28;20955;-72
2022/07/20 03:36:04;;;;;;;3.50;3.07;;;;;;;;;;5076916;28;20505;-72
2022/07/20 03:38:32;;;;;;;3.87;3.40;;;;;;;;;;5076916;28;20458;-72
2022/07/20 03:40:59;;;;;;;11.03;4.30;;;;;;;;;;5076508;28;20458;-72
2022/07/20 03:43:27;;;;;;;5.80;3.50;;;;;;;;;;5076433;28;21019;-72
2022/07/20 03:45:54;;;;;;;4.77;3.07;;;;;;;;;;5076438;28;20452;-72
2022/07/20 03:48:21;;;;;;;6.10;3.40;;;;;;;;;;5076709;28;20981;-72
2022/07/20 03:50:48;;;;;;;9.70;4.30;;;;;;;;;;5076328;28;20455;-72
2022/07/20 03:53:15;;;;;;;8.50;3.93;;;;;;;;;;5076433;28;20844;-72
2022/07/20 03:55:43;;;;;;;5.40;2.67;;;;;;;;;;5076514;28;20480;-72
2022/07/20 03:58:11;;;;;;;5.63;2.97;;;;;;;;;;5076224;28;20454;-72
2022/07/20 04:00:38;;;;;;;9.20;3.73;;;;;;;;;;5076525;28;20900;-72
2022/07/20 04:03:05;;;;;;;5.83;4.40;;;;;;;;;;5076330;28;21003;-72
2022/07/20 04:05:32;;;;;;;6.70;3.93;;;;;;;;;;5076494;28;20436;-72
2022/07/20 04:07:59;;;;;;;7.10;4.33;;;;;;;;;;5076380;28;20459;-72
2022/07/20 04:10:26;;;;;;;5.63;4.30;;;;;;;;;;5076338;28;20439;-72
2022/07/20 04:12:54;;;;;;;8.57;3.50;;;;;;;;;;5076220;28;20478;-72
2022/07/20 04:15:22;;;;;;;5.87;3.40;;;;;;;;;;5075828;28;20452;-72
2022/07/20 04:17:49;;;;;;;3.90;3.50;;;;;;;;;;5076186;28;20456;-72
2022/07/20 04:20:16;;;;;;;4.17;3.50;;;;;;;;;;5076044;28;20451;-72
2022/07/20 04:22:43;;;;;;;3.93;3.63;;;;;;;;;;5076099;28;20472;-72
2022/07/20 04:25:10;;;;;;;4.43;3.30;;;;;;;;;;5075760;28;20450;-72
2022/07/20 04:27:37;;;;;;;7.57;3.73;;;;;;;;;;5075661;28;20792;-72
2022/07/20 04:30:07;;;;;;;10.73;3.93;;;;;;;;;;5075627;28;20959;-73
2022/07/20 04:32:34;;;;;;;10.57;3.60;;;;;;;;;;5076056;28;20964;-73
2022/07/20 04:35:01;;;;;;;5.40;3.00;;;;;;;;;;5075939;28;20459;-73
2022/07/20 04:37:28;;;;;;;4.13;3.63;;;;;;;;;;5075846;28;20491;-73
2022/07/20 04:39:55;;;;;;;5.20;3.80;;;;;;;;;;5075865;28;20428;-73
2022/07/20 04:42:23;;;;;;;4.00;3.27;;;;;;;;;;5075507;28;20495;-73
2022/07/20 04:44:50;;;;;;;4.17;2.80;;;;;;;;;;5075848;28;20436;-73
2022/07/20 04:47:18;;;;;;;5.17;3.10;;;;;;;;;;5075667;28;20448;-73
2022/07/20 04:49:45;;;;;;;4.10;3.40;;;;;;;;;;5075587;28;20459;-73
2022/07/20 04:52:13;;;;;;;5.10;3.80;;;;;;;;;;5075603;28;20478;-74
2022/07/20 04:54:40;;;;;;;4.63;3.47;;;;;;;;;;5075346;28;20440;-73
2022/07/20 04:57:07;;;;;;;6.37;3.60;;;;;;;;;;5075405;28;20490;-73
2022/07/20 04:59:34;;;;;;;6.47;3.20;;;;;;;;;;5075423;28;20463;-73
2022/07/20 05:02:02;;;;;;;11.30;3.70;;;;;;;;;;5075318;28;20474;-73
2022/07/20 05:04:30;;;;;;;6.27;4.77;;;;;;;;;;5075391;28;20458;-73
2022/07/20 05:06:57;;;;;;;6.27;4.40;;;;;;;;;;5075012;28;20447;-73
2022/07/20 05:09:25;;;;;;;4.90;3.70;;;;;;;;;;5074975;28;20455;-73
2022/07/20 05:11:52;;;;;;;8.67;3.83;;;;;;;;;;5074806;28;20476;-73
2022/07/20 05:14:19;;;;;;;6.10;3.93;;;;;;;;;;5075161;28;20506;-73
2022/07/20 05:16:46;;;;;;;5.97;3.70;;;;;;;;;;5075128;28;20479;-73
2022/07/20 05:19:14;;;;;;;6.37;4.13;;;;;;;;;;5074856;28;20547;-73
2022/07/20 05:21:42;;;;;;;6.60;4.03;;;;;;;;;;5074950;28;20838;-73
2022/07/20 05:24:09;;;;;;;5.53;3.63;;;;;;;;;;5074956;28;20928;-73
2022/07/20 05:26:36;;;;;;;9.60;5.90;;;;;;;;;;5074866;28;20455;-73
2022/07/20 05:29:03;;;;;;;5.90;3.60;;;;;;;;;;5074863;28;20451;-73
2022/07/20 05:31:30;;;;;;;3.87;3.50;;;;;;;;;;5074751;28;20452;-73
2022/07/20 05:33:58;;;;;;;6.37;3.77;;;;;;;;;;5074705;28;20454;-73
2022/07/20 05:36:26;;;;;;;10.90;5.07;;;;;;;;;;5074248;28;20478;-73
2022/07/20 05:38:54;;;;;;;8.47;5.43;;;;;;;;;;5074606;28;20504;-73
2022/07/20 05:41:21;;;;;;;9.53;5.30;;;;;;;;;;5074510;28;20462;-73
2022/07/20 05:43:48;;;;;;;6.57;4.30;;;;;;;;;;5074176;28;20470;-73
2022/07/20 05:46:16;;;;;;;10.47;5.63;;;;;;;;;;5074504;28;20447;-73
2022/07/20 05:48:43;;;;;;;7.97;5.50;;;;;;;;;;5074543;28;20450;-73
2022/07/20 05:51:10;;;;;;;9.33;5.23;;;;;;;;;;5074378;28;20816;-73
2022/07/20 05:53:37;;;;;;;11.03;6.00;;;;;;;;;;5074364;28;20444;-73
2022/07/20 05:56:06;;;;;;;8.03;4.50;;;;;;;;;;5074240;28;20797;-73
2022/07/20 05:58:33;;;;;;;11.33;6.70;;;;;;;;;;5074229;28;20559;-73
2022/07/20 06:01:00;;;;;;;6.93;5.73;;;;;;;;;;5074145;28;20455;-73
2022/07/20 06:03:27;;;;;;;6.50;4.70;;;;;;;;;;5074097;28;20475;-73
2022/07/20 06:05:54;;;;;;;5.70;4.27;;;;;;;;;;5073830;28;20458;-73
2022/07/20 06:08:21;;;;;;;5.27;4.13;;;;;;;;;;5073778;28;20450;-73
2022/07/20 06:10:48;;;;;;;6.40;4.30;;;;;;;;;;5073698;28;20455;-74
2022/07/20 06:13:17;;;;;;;6.37;4.37;;;;;;;;;;5073541;28;20486;-74
2022/07/20 06:15:44;;;;;;;7.13;4.60;;;;;;;;;;5073943;28;20944;-73
2022/07/20 06:18:11;;;;;;;5.33;4.13;;;;;;;;;;5073865;28;20863;-73
2022/07/20 06:20:38;;;;;;;6.07;4.67;;;;;;;;;;5073853;28;20478;-73
2022/07/20 06:23:05;;;;;;;10.27;5.20;;;;;;;;;;5073149;28;20482;-73
2022/07/20 06:25:32;;;;;;;7.03;5.23;;;;;;;;;;5073648;28;20475;-74
2022/07/20 06:28:00;;;;;;;12.70;5.47;;;;;;;;;;5072859;28;20458;-73
2022/07/20 06:30:29;;;;;;;8.17;4.30;;;;;;;;;;5072085;28;20189;-73
2022/07/20 06:32:56;;;;;;;9.90;4.20;;;;;;;;;;5072605;28;20595;-73
2022/07/20 06:35:23;;;;;;;8.00;5.23;;;;;;;;;;5073409;28;20213;-73
2022/07/20 06:37:51;;;;;;;4.13;3.73;;;;;;;;;;5073062;28;20694;-73
2022/07/20 06:40:18;;;;;;;7.90;4.17;;;;;;;;;;5071371;28;20581;-73
2022/07/20 06:42:45;;;;;;;5.25;3.35;;;;;;;;;;5072184;28;20244;-73
2022/07/20 06:45:12;;;;;;;4.53;4.00;;;;;;;;;;5071128;28;20209;-73
2022/07/20 06:47:41;;;;;;;5.82;3.47;;;;;;;;;;5070861;28;20204;-73
2022/07/20 06:50:09;;;;;;;5.43;4.45;;;;;;;;;;5071418;28;20732;-71
2022/07/20 06:52:36;;;;;;;4.18;3.00;;;;;;;;;;5071263;28;20236;-71
2022/07/20 06:55:03;;;;;;;4.97;3.47;;;;;;;;;;5071506;28;20193;-70
2022/07/20 06:57:30;;;;;;;4.60;4.20;;;;;;;;;;5071518;28;20213;-71
2022/07/20 06:59:57;;;;;;;8.80;3.63;;;;;;;;;;5072571;28;20232;-71
2022/07/20 07:02:25;;;;;;;3.90;3.33;;;;;;;;;;5072152;28;20233;-71
2022/07/20 07:04:59;;;;;;;4.03;3.65;;;;;;;;;;5072444;28;20204;-71
2022/07/20 07:07:29;;;;;;;7.25;3.97;;;;;;;;;;5071419;28;20209;-71
2022/07/20 07:09:56;;;;;;;3.75;3.35;;;;;;;;;;5071829;28;20220;-71
2022/07/20 07:12:23;;;;;;;5.93;3.47;;;;;;;;;;5071763;28;20232;-71
2022/07/20 07:14:50;;;;;;;5.15;3.33;;;;;;;;;;5072028;28;20665;-71
2022/07/20 07:17:18;;;;;;;4.25;3.63;;;;;;;;;;5071867;28;20717;-71
2022/07/20 07:19:45;;;;;;;4.47;3.20;;;;;;;;;;5071665;28;20307;-71
2022/07/20 07:22:13;;;;;;;5.10;4.35;;;;;;;;;;5071610;28;20244;-71
2022/07/20 07:24:40;;;;;;;4.22;3.30;;;;;;;;;;5072008;28;20451;-71
2022/07/20 07:27:07;;;;;;;4.88;3.80;;;;;;;;;;5071645;28;20216;-71
2022/07/20 07:29:35;;;;;;;3.70;3.40;;;;;;;;;;5071762;28;20670;-71
2022/07/20 07:32:02;;;;;;;7.25;3.47;;;;;;;;;;5071771;28;20228;-71
2022/07/20 07:34:29;;;;;;;11.15;3.90;;;;;;;;;;5071800;28;20606;-71
2022/07/20 07:36:57;;;;;;;5.45;4.13;;;;;;;;;;5071752;28;20626;-71
2022/07/20 07:39:25;;;;;;;6.75;3.95;;;;;;;;;;5071313;28;20212;-71
2022/07/20 07:41:52;;;;;;;6.30;4.43;;;;;;;;;;5071736;28;20572;-71
2022/07/20 07:44:19;;;;;;;5.65;4.03;;;;;;;;;;5071380;28;20596;-71
2022/07/20 07:46:46;;;;;;;3.55;3.20;;;;;;;;;;5071686;28;20190;-71
2022/07/20 07:49:13;;;;;;;6.50;3.72;;;;;;;;;;5071552;28;20205;-71
2022/07/20 07:51:41;;;;;;;3.70;3.30;;;;;;;;;;5071325;28;20228;-71
2022/07/20 07:54:08;;;;;;;6.18;3.83;;;;;;;;;;5071647;28;20661;-71
2022/07/20 07:56:36;;;;;;;7.22;3.90;;;;;;;;;;5071216;28;20190;-71
2022/07/20 07:59:04;;;;;;;7.03;3.53;;;;;;;;;;5071445;28;20581;-71
2022/07/20 08:01:31;;;;;;;5.90;3.53;;;;;;;;;;5071425;28;20318;-71
2022/07/20 08:03:58;;;;;;;5.53;4.00;;;;;;;;;;5072653;28;20208;-73
2022/07/20 08:06:25;;;;;;;5.90;4.37;;;;;;;;;;5074840;28;20307;-73
2022/07/20 08:08:52;;;;;;;5.70;3.70;;;;;;;;;;5075137;28;20208;-73
2022/07/20 08:11:19;;;;;;;4.07;3.67;;;;;;;;;;5074893;28;20205;-71
2022/07/20 08:13:48;;;;;;;9.57;6.07;;;;;;;;;;5074924;28;20580;-71
2022/07/20 08:16:15;;;;;;;4.82;3.83;;;;;;;;;;5074961;28;20205;-71
2022/07/20 08:18:42;;;;;;;5.53;5.03;;;;;;;;;;5074876;28;20224;-73
2022/07/20 08:21:09;;;;;;;4.82;3.83;;;;;;;;;;5074845;28;20678;-73
2022/07/20 08:23:36;;;;;;;4.78;4.25;;;;;;;;;;5074672;28;20717;-73
2022/07/20 08:26:03;;;;;;;5.03;3.83;;;;;;;;;;5074696;28;20193;-73
2022/07/20 08:28:30;;;;;;;10.63;4.30;;;;;;;;;;5074851;28;20220;-73
2022/07/20 08:31:00;;;;;;;5.40;4.50;;;;;;;;;;5074748;28;20209;-73
2022/07/20 08:33:27;;;;;;;5.47;4.97;;;;;;;;;;5074627;28;20247;-73
2022/07/20 08:35:54;;;;;;;10.33;4.60;;;;;;;;;;5074643;28;20200;-73
2022/07/20 08:38:21;;;;;;;10.10;6.27;;;;;;;;;;5074504;28;20666;-73
2022/07/20 08:40:49;;;;;;;7.50;4.40;;;;;;;;;;5074483;28;20619;-73
2022/07/20 08:43:17;;;;;;;8.90;5.17;;;;;;;;;;5074133;28;20275;-73
2022/07/20 08:45:46;;;;;;;8.00;4.60;;;;;;;;;;5073928;28;20209;-73
2022/07/20 08:48:18;;;;;;;8.07;5.33;;;;;;;;;;5073954;28;20201;-73
2022/07/20 08:50:45;;;;;;;7.00;4.17;;;;;;;;;;5074358;28;20657;-73
2022/07/20 08:53:13;;;;;;;7.75;4.63;;;;;;;;;;5074212;28;20229;-73
2022/07/20 08:55:40;;;;;;;9.70;4.43;;;;;;;;;;5074200;28;20193;-73
2022/07/20 08:58:07;;;;;;;5.57;4.63;;;;;;;;;;5074214;28;20235;-74
2022/07/20 09:00:34;;;;;;;6.17;5.67;;;;;;;;;;5074253;28;20197;-73
2022/07/20 09:03:02;;;;;;;5.57;4.87;;;;;;;;;;5073763;28;20319;-74
2022/07/20 09:05:32;;;;;;;9.53;4.97;;;;;;;;;;5073881;28;20231;-74
2022/07/20 09:08:01;;;;;;;5.70;4.80;;;;;;;;;;5073983;28;20193;-73
2022/07/20 09:10:29;;;;;;;12.43;5.30;;;;;;;;;;5073956;28;20852;-74
2022/07/20 09:12:58;;;;;;;7.40;5.20;;;;;;;;;;5073769;28;20233;-74
2022/07/20 09:15:27;;;;;;;8.10;4.57;;;;;;;;;;5073680;28;20661;-74
2022/07/20 09:18:02;;;;;;;6.05;4.72;;;;;;;;;;5073441;28;20685;-74
2022/07/20 09:20:31;;;;;;;6.60;5.00;;;;;;;;;;5073716;28;20192;-73
2022/07/20 09:23:01;;;;;;;8.03;4.67;;;;;;;;;;5073630;28;20752;-73
2022/07/20 09:25:28;;;;;;;5.53;4.50;;;;;;;;;;5073624;28;20307;-73
2022/07/20 09:27:56;;;;;;;5.88;5.07;;;;;;;;;;5073267;28;20211;-73
2022/07/20 09:30:23;;;;;;;7.60;5.23;;;;;;;;;;5073575;28;20189;-73
2022/07/20 09:32:52;;;;;;;6.20;5.13;;;;;;;;;;5073029;28;20233;-73
2022/07/20 09:35:20;;;;;;;5.67;4.70;;;;;;;;;;5073589;28;20689;-73
2022/07/20 09:37:49;;;;;;;5.10;4.60;;;;;;;;;;5073367;28;20620;-73
2022/07/20 09:40:16;;;;;;;4.97;4.57;;;;;;;;;;5073307;28;20625;-74
2022/07/20 09:42:45;;;;;;;5.97;5.33;;;;;;;;;;5072983;28;20237;-73
2022/07/20 09:45:19;;;;;;;6.97;5.47;;;;;;;;;;5073278;28;20197;-73
2022/07/20 09:48:01;;;;;;;6.83;4.67;;;;;;;;;;5073184;28;20239;-73
2022/07/20 09:50:29;;;;;;;5.93;5.40;;;;;;;;;;5073021;28;20229;-73
2022/07/20 09:52:57;;;;;;;6.30;5.17;;;;;;;;;;5073077;28;20768;-73
2022/07/20 09:55:25;;;;;;;5.30;4.90;;;;;;;;;;5073104;28;20220;-74
2022/07/20 09:57:52;;;;;;;8.80;5.83;;;;;;;;;;5072885;28;20232;-73
2022/07/20 10:00:20;;;;;;;7.20;6.00;;;;;;;;;;5072740;28;20196;-74
2022/07/20 10:02:48;;;;;;;6.00;5.50;;;;;;;;;;5072848;28;20224;-74
2022/07/20 10:05:17;;;;;;;6.83;5.30;;;;;;;;;;5072814;28;20300;-74
2022/07/20 10:07:45;;;;;;;5.60;4.97;;;;;;;;;;5072521;28;20216;-74
2022/07/20 10:10:13;;;;;;;7.67;4.43;;;;;;;;;;5072803;28;20296;-74
2022/07/20 10:12:40;;;;;;;5.80;5.30;;;;;;;;;;5072616;28;20229;-74
2022/07/20 10:15:10;;;;;;;6.90;5.00;;;;;;;;;;5072700;28;20666;-74
2022/07/20 10:17:38;;;;;;;8.63;4.72;;;;;;;;;;5072577;28;20228;-74
2022/07/20 10:20:08;;;;;;;6.03;5.37;;;;;;;;;;5072274;28;20212;-74
2022/07/20 10:22:35;;;;;;;5.37;4.80;;;;;;;;;;5072905;28;20232;-74
2022/07/20 10:25:18;;;;;;;5.60;4.80;;;;;;;;;;5073770;28;20566;-74
2022/07/20 10:27:45;;;;;;;9.23;5.97;;;;;;;;;;5072623;28;20189;-74
2022/07/20 10:30:16;;;;;;;6.57;5.77;;;;;;;;;;5071926;28;20219;-74
2022/07/20 10:32:52;;;;;;;6.80;5.10;;;;;;;;;;5073380;28;20236;-74
2022/07/20 10:35:26;;;;;;;5.07;4.63;;;;;;;;;;5073613;28;20231;-74
2022/07/20 10:37:54;;;;;;;6.05;5.55;;;;;;;;;;5073641;28;20259;-74
2022/07/20 10:40:23;;;;;;;8.18;4.97;;;;;;;;;;5073745;28;20209;-74
2022/07/20 10:42:51;;;;;;;6.20;5.10;;;;;;;;;;5072812;28;20236;-74
2022/07/20 10:45:29;;;;;;;5.85;5.35;;;;;;;;;;5073489;28;20609;-74
2022/07/20 10:47:59;;;;;;;6.78;5.05;;;;;;;;;;5073280;28;20318;-73
2022/07/20 10:50:29;;;;;;;7.63;4.90;;;;;;;;;;5073640;28;20197;-74
2022/07/20 10:52:57;;;;;;;5.53;5.13;;;;;;;;;;5073473;28;20232;-74
2022/07/20 10:55:43;;;;;;;5.25;4.82;;;;;;;;;;5073445;28;20209;-74
2022/07/20 10:58:13;;;;;;;5.50;4.97;;;;;;;;;;5073018;28;20213;-73
2022/07/20 11:00:41;;;;;;;5.60;4.95;;;;;;;;;;5073424;28;20201;-74
2022/07/20 11:03:13;;;;;;;5.07;4.65;;;;;;;;;;5072872;28;20244;-74
2022/07/20 11:05:40;;;;;;;6.05;5.45;;;;;;;;;;5073425;28;20199;-74
2022/07/20 11:08:08;;;;;;;5.70;5.20;;;;;;;;;;5073425;28;20236;-74
2022/07/20 11:10:35;;;;;;;5.10;4.70;;;;;;;;;;5073280;28;20209;-74
2022/07/20 11:13:04;;;;;;;4.55;4.15;;;;;;;;;;5072872;28;20232;-74
2022/07/20 11:15:49;;;;;;;4.43;4.13;;;;;;;;;;5073082;28;20200;-74
2022/07/20 11:18:19;;;;;;;6.00;5.03;;;;;;;;;;5073237;28;20220;-72
2022/07/20 11:20:47;;;;;;;5.55;4.82;;;;;;;;;;5072734;28;20247;-72
2022/07/20 11:23:15;;;;;;;9.27;4.90;;;;;;;;;;5072318;28;20229;-71
2022/07/20 11:25:46;;;;;;;4.60;4.25;;;;;;;;;;5073039;28;20204;-72
2022/07/20 11:28:13;;;;;;;6.25;5.40;;;;;;;;;;5073110;28;20303;-71
2022/07/20 11:30:42;;;;;;;5.85;5.28;;;;;;;;;;5073101;28;20634;-71
2022/07/20 11:33:10;;;;;;;8.23;4.47;;;;;;;;;;5072674;28;20228;-72
2022/07/20 11:35:39;;;;;;;5.28;4.80;;;;;;;;;;5072524;28;20236;-72
2022/07/20 11:38:06;;;;;;;6.67;4.37;;;;;;;;;;5074547;28;20232;-72
2022/07/20 11:40:33;;;;;;;7.60;5.13;;;;;;;;;;5076441;28;20588;-72
2022/07/20 11:43:10;;;;;;;5.30;4.60;;;;;;;;;;5076462;28;20243;-72
2022/07/20 11:45:37;;;;;;;7.20;5.50;;;;;;;;;;5076558;28;20197;-72
2022/07/20 11:48:16;;;;;;;7.87;7.10;;;;;;;;;;5076421;28;20554;-72
2022/07/20 11:50:45;;;;;;;6.87;5.27;;;;;;;;;;5076129;28;20220;-71
2022/07/20 11:53:28;;;;;;;5.00;4.60;;;;;;;;;;5076294;28;20233;-71
2022/07/20 11:55:56;;;;;;;5.27;4.87;;;;;;;;;;5076601;28;20670;-72
2022/07/20 11:58:30;;;;;;;7.87;6.20;;;;;;;;;;5076392;28;20236;-72
2022/07/20 12:00:57;;;;;;;6.57;4.97;;;;;;;;;;5076305;28;20215;-74
2022/07/20 12:03:28;;;;;;;6.63;6.07;;;;;;;;;;5076483;28;20972;-74
2022/07/20 12:05:56;;;;;;;6.67;5.10;;;;;;;;;;5076502;28;20474;-74
2022/07/20 12:08:24;;;;;;;6.77;5.43;;;;;;;;;;5076129;28;20459;-74
2022/07/20 12:10:51;;;;;;;5.80;4.67;;;;;;;;;;5076091;28;20455;-74
2022/07/20 12:13:19;;;;;;;5.43;4.93;;;;;;;;;;5076134;28;21015;-75
2022/07/20 12:15:56;;;;;;;6.40;4.73;;;;;;;;;;5076314;28;20205;-75
2022/07/20 12:18:33;;;;;;;6.90;5.33;;;;;;;;;;5076172;28;21015;-74
2022/07/20 12:21:01;;;;;;;9.53;5.67;;;;;;;;;;5076232;28;20896;-74
2022/07/20 12:23:29;;;;;;;7.90;5.47;;;;;;;;;;5075791;28;20498;-74
2022/07/20 12:25:56;;;;;;;6.77;5.70;;;;;;;;;;5075861;28;20458;-74
2022/07/20 12:28:28;;;;;;;6.63;5.77;;;;;;;;;;5075773;28;20447;-74
2022/07/20 12:31:09;;;;;;;9.40;5.30;;;;;;;;;;5076106;28;20905;-74
2022/07/20 12:33:36;;;;;;;6.47;5.50;;;;;;;;;;5075928;28;20888;-74
2022/07/20 12:36:07;;;;;;;10.60;5.70;;;;;;;;;;5075849;28;20447;-74
2022/07/20 12:38:34;;;;;;;5.50;5.00;;;;;;;;;;5075826;28;20471;-74
2022/07/20 12:41:11;;;;;;;7.07;4.90;;;;;;;;;;5075810;28;20439;-74
2022/07/20 12:43:40;;;;;;;8.40;5.03;;;;;;;;;;5075482;28;20852;-74
2022/07/20 12:46:09;;;;;;;6.37;5.67;;;;;;;;;;5075400;28;20447;-74
2022/07/20 12:48:36;;;;;;;6.30;5.33;;;;;;;;;;5075426;28;20454;-74
2022/07/20 12:51:05;;;;;;;7.83;5.67;;;;;;;;;;5074856;28;20456;-74
2022/07/20 12:53:33;;;;;;;6.60;5.90;;;;;;;;;;5075511;28;20475;-74
2022/07/20 12:56:01;;;;;;;6.00;5.33;;;;;;;;;;5075582;28;20462;-74
2022/07/20 12:58:28;;;;;;;8.40;6.30;;;;;;;;;;5075456;28;20471;-74
2022/07/20 13:00:55;;;;;;;7.43;5.77;;;;;;;;;;5075109;28;20463;-74
2022/07/20 13:03:22;;;;;;;8.70;5.53;;;;;;;;;;5075244;28;20467;-74
2022/07/20 13:05:49;;;;;;;6.20;5.67;;;;;;;;;;5075299;28;20452;-74
2022/07/20 13:08:16;;;;;;;7.97;5.00;;;;;;;;;;5075281;28;20454;-74
2022/07/20 13:10:45;;;;;;;5.77;5.17;;;;;;;;;;5075031;28;20454;-74
2022/07/20 13:13:12;;;;;;;6.50;5.47;;;;;;;;;;5074879;28;20475;-74
2022/07/20 13:15:39;;;;;;;6.63;5.60;;;;;;;;;;5074770;28;20463;-74
2022/07/20 13:18:07;;;;;;;8.47;4.87;;;;;;;;;;5075134;28;20960;-74
2022/07/20 13:20:35;;;;;;;8.47;5.27;;;;;;;;;;5075150;28;20902;-74
2022/07/20 13:23:03;;;;;;;5.70;5.07;;;;;;;;;;5074890;28;20467;-74
2022/07/20 13:25:30;;;;;;;8.00;5.30;;;;;;;;;;5074838;28;20458;-74
2022/07/20 13:27:59;;;;;;;6.83;6.00;;;;;;;;;;5074924;28;20538;-74
2022/07/20 13:30:26;;;;;;;5.50;5.00;;;;;;;;;;5074903;28;20451;-74
2022/07/20 13:32:54;;;;;;;5.93;5.30;;;;;;;;;;5074723;28;20537;-74
2022/07/20 13:35:21;;;;;;;7.50;5.60;;;;;;;;;;5075032;28;20936;-74
2022/07/20 13:37:48;;;;;;;6.47;5.43;;;;;;;;;;5074777;28;20529;-74
2022/07/20 13:40:15;;;;;;;6.80;5.43;;;;;;;;;;5074674;28;20485;-74
2022/07/20 13:42:42;;;;;;;7.93;6.00;;;;;;;;;;5074226;28;20852;-74
2022/07/20 13:45:11;;;;;;;5.87;5.27;;;;;;;;;;5074540;28;20456;-74
2022/07/20 13:47:39;;;;;;;5.93;5.13;;;;;;;;;;5074501;28;20459;-74
2022/07/20 13:50:07;;;;;;;6.20;5.53;;;;;;;;;;5074450;28;20448;-74
2022/07/20 13:52:34;;;;;;;7.00;6.07;;;;;;;;;;5074360;28;20482;-74
2022/07/20 13:55:02;;;;;;;6.30;5.77;;;;;;;;;;5074375;28;20459;-74
2022/07/20 13:57:29;;;;;;;7.40;6.17;;;;;;;;;;5074294;28;21086;-74
2022/07/20 13:59:56;;;;;;;7.47;6.77;;;;;;;;;;5073892;28;20475;-74
2022/07/20 14:02:25;;;;;;;11.03;6.63;;;;;;;;;;5072870;28;20471;-74
2022/07/20 14:04:52;;;;;;;7.43;6.07;;;;;;;;;;5073773;28;20455;-75
2022/07/20 14:07:19;;;;;;;9.67;6.43;;;;;;;;;;5074235;28;20447;-74
2022/07/20 14:09:46;;;;;;;6.27;5.70;;;;;;;;;;5074102;28;20428;-73
2022/07/20 14:12:13;;;;;;;6.03;5.43;;;;;;;;;;5073904;28;20847;-74
2022/07/20 14:14:40;;;;;;;6.23;5.60;;;;;;;;;;5073895;28;20452;-74
2022/07/20 14:17:07;;;;;;;8.80;5.47;;;;;;;;;;5073841;28;20456;-74
2022/07/20 14:19:36;;;;;;;6.63;6.03;;;;;;;;;;5073415;28;20472;-74
2022/07/20 14:22:03;;;;;;;6.67;6.07;;;;;;;;;;5073754;28;20472;-74
2022/07/20 14:24:30;;;;;;;7.43;5.80;;;;;;;;;;5073730;28;20952;-74
2022/07/20 14:26:57;;;;;;;6.20;5.50;;;;;;;;;;5073671;28;20479;-74
2022/07/20 14:29:24;;;;;;;12.23;6.87;;;;;;;;;;5073650;28;20455;-74
2022/07/20 14:31:53;;;;;;;6.23;5.43;;;;;;;;;;5073616;28;20972;-73
2022/07/20 14:34:21;;;;;;;6.37;5.70;;;;;;;;;;5073654;28;20502;-73
2022/07/20 14:36:50;;;;;;;5.73;5.10;;;;;;;;;;5073674;28;20444;-74
2022/07/20 14:39:17;;;;;;;10.00;6.00;;;;;;;;;;5073334;28;20471;-73
2022/07/20 14:41:44;;;;;;;8.83;6.50;;;;;;;;;;5073526;28;20483;-74
2022/07/20 14:44:11;;;;;;;5.43;4.93;;;;;;;;;;5073389;28;20463;-74
2022/07/20 14:46:38;;;;;;;7.50;5.40;;;;;;;;;;5073419;28;20485;-74
2022/07/20 14:49:06;;;;;;;6.63;5.93;;;;;;;;;;5073393;28;20452;-73
2022/07/20 14:51:33;;;;;;;5.90;5.40;;;;;;;;;;5073312;28;20487;-74